sensor_id;sensor_type;location;lat;lon;timestamp;P1;durP1;ratioP1;P2;durP2;ratioP2
28070;SDS011;15383;48.408;9.968;2024-01-30T00:01:48;24.80;;;10.95;;
28070;SDS011;15383;48.408;9.968;2024-01-30T00:04:13;24.70;;;11.45;;
28070;SDS011;15383;48.408;9.968;2024-01-30T00:06:39;19.55;;;10.30;;
28070;SDS011;15383;48.408;9.968;2024-01-30T00:09:04;22.92;;;12.35;;
28070;SDS011;15383;48.408;9.968;2024-01-30T00:11:30;24.02;;;11.13;;
28070;SDS011;15383;48.408;9.968;2024-01-30T00:13:56;26.50;;;10.90;;
28070;SDS011;15383;48.408;9.968;2024-01-30T00:16:22;20.58;;;10.75;;
28070;SDS011;15383;48.408;9.968;2024-01-30T00:18:52;28.25;;;11.75;;
28070;SDS011;15383;48.408;9.968;2024-01-30T00:21:18;25.23;;;11.00;;
28070;SDS011;15383;48.408;9.968;2024-01-30T00:23:45;19.70;;;10.68;;
28070;SDS011;15383;48.408;9.968;2024-01-30T00:26:10;24.55;;;11.98;;
28070;SDS011;15383;48.408;9.968;2024-01-30T00:28:36;26.20;;;11.45;;
28070;SDS011;15383;48.408;9.968;2024-01-30T00:31:05;28.02;;;11.88;;
28070;SDS011;15383;48.408;9.968;2024-01-30T00:33:31;20.67;;;11.00;;
28070;SDS011;15383;48.408;9.968;2024-01-30T00:35:56;21.88;;;10.90;;
28070;SDS011;15383;48.408;9.968;2024-01-30T00:38:22;29.85;;;11.63;;
28070;SDS011;15383;48.408;9.968;2024-01-30T00:40:48;26.35;;;12.10;;
28070;SDS011;15383;48.408;9.968;2024-01-30T00:43:13;28.55;;;12.20;;
28070;SDS011;15383;48.408;9.968;2024-01-30T00:45:40;19.98;;;10.98;;
28070;SDS011;15383;48.408;9.968;2024-01-30T00:48:05;19.92;;;10.77;;
28070;SDS011;15383;48.408;9.968;2024-01-30T00:50:31;21.48;;;11.95;;
28070;SDS011;15383;48.408;9.968;2024-01-30T00:52:57;23.80;;;12.20;;
28070;SDS011;15383;48.408;9.968;2024-01-30T00:55:22;20.30;;;11.43;;
28070;SDS011;15383;48.408;9.968;2024-01-30T00:57:48;22.25;;;10.90;;
28070;SDS011;15383;48.408;9.968;2024-01-30T01:00:14;39.83;;;11.32;;
28070;SDS011;15383;48.408;9.968;2024-01-30T01:02:42;28.20;;;11.48;;
28070;SDS011;15383;48.408;9.968;2024-01-30T01:05:08;29.17;;;10.80;;
28070;SDS011;15383;48.408;9.968;2024-01-30T01:07:33;22.73;;;11.80;;
28070;SDS011;15383;48.408;9.968;2024-01-30T01:09:59;20.13;;;10.65;;
28070;SDS011;15383;48.408;9.968;2024-01-30T01:12:24;23.23;;;12.02;;
28070;SDS011;15383;48.408;9.968;2024-01-30T01:14:50;24.83;;;11.10;;
28070;SDS011;15383;48.408;9.968;2024-01-30T01:17:16;21.85;;;10.90;;
28070;SDS011;15383;48.408;9.968;2024-01-30T01:19:43;19.83;;;10.88;;
28070;SDS011;15383;48.408;9.968;2024-01-30T01:22:08;23.17;;;10.73;;
28070;SDS011;15383;48.408;9.968;2024-01-30T01:24:35;25.00;;;11.02;;
28070;SDS011;15383;48.408;9.968;2024-01-30T01:27:01;26.63;;;11.70;;
28070;SDS011;15383;48.408;9.968;2024-01-30T01:29:26;22.60;;;11.23;;
28070;SDS011;15383;48.408;9.968;2024-01-30T01:31:54;24.83;;;11.32;;
28070;SDS011;15383;48.408;9.968;2024-01-30T01:34:21;24.95;;;10.18;;
28070;SDS011;15383;48.408;9.968;2024-01-30T01:36:47;21.10;;;9.95;;
28070;SDS011;15383;48.408;9.968;2024-01-30T01:39:12;26.33;;;10.32;;
28070;SDS011;15383;48.408;9.968;2024-01-30T01:41:38;23.40;;;11.13;;
28070;SDS011;15383;48.408;9.968;2024-01-30T01:44:03;28.73;;;11.57;;
28070;SDS011;15383;48.408;9.968;2024-01-30T01:46:30;19.83;;;9.88;;
28070;SDS011;15383;48.408;9.968;2024-01-30T01:48:58;22.50;;;10.80;;
28070;SDS011;15383;48.408;9.968;2024-01-30T01:51:26;20.08;;;10.75;;
28070;SDS011;15383;48.408;9.968;2024-01-30T01:53:54;21.38;;;10.93;;
28070;SDS011;15383;48.408;9.968;2024-01-30T01:56:22;28.80;;;11.85;;
28070;SDS011;15383;48.408;9.968;2024-01-30T01:58:48;20.85;;;11.60;;
28070;SDS011;15383;48.408;9.968;2024-01-30T02:01:16;22.02;;;11.32;;
28070;SDS011;15383;48.408;9.968;2024-01-30T02:03:43;27.23;;;9.95;;
28070;SDS011;15383;48.408;9.968;2024-01-30T02:06:10;21.85;;;10.20;;
28070;SDS011;15383;48.408;9.968;2024-01-30T02:08:37;17.98;;;9.85;;
28070;SDS011;15383;48.408;9.968;2024-01-30T02:11:02;23.25;;;10.02;;
28070;SDS011;15383;48.408;9.968;2024-01-30T02:13:28;23.40;;;10.48;;
28070;SDS011;15383;48.408;9.968;2024-01-30T02:15:54;15.90;;;9.15;;
28070;SDS011;15383;48.408;9.968;2024-01-30T02:18:19;21.77;;;10.48;;
28070;SDS011;15383;48.408;9.968;2024-01-30T02:20:48;18.85;;;9.52;;
28070;SDS011;15383;48.408;9.968;2024-01-30T02:23:15;26.23;;;9.65;;
28070;SDS011;15383;48.408;9.968;2024-01-30T02:25:41;26.70;;;10.23;;
28070;SDS011;15383;48.408;9.968;2024-01-30T02:28:10;19.38;;;9.35;;
28070;SDS011;15383;48.408;9.968;2024-01-30T02:30:39;18.98;;;9.70;;
28070;SDS011;15383;48.408;9.968;2024-01-30T02:33:04;19.98;;;9.50;;
28070;SDS011;15383;48.408;9.968;2024-01-30T02:35:30;16.85;;;8.38;;
28070;SDS011;15383;48.408;9.968;2024-01-30T02:37:56;19.10;;;9.43;;
28070;SDS011;15383;48.408;9.968;2024-01-30T02:40:21;19.73;;;9.80;;
28070;SDS011;15383;48.408;9.968;2024-01-30T02:42:47;18.83;;;8.20;;
28070;SDS011;15383;48.408;9.968;2024-01-30T02:45:13;20.27;;;9.90;;
28070;SDS011;15383;48.408;9.968;2024-01-30T02:47:38;17.48;;;8.48;;
28070;SDS011;15383;48.408;9.968;2024-01-30T02:50:05;16.10;;;9.38;;
28070;SDS011;15383;48.408;9.968;2024-01-30T02:52:30;19.65;;;9.40;;
28070;SDS011;15383;48.408;9.968;2024-01-30T02:54:56;18.75;;;9.40;;
28070;SDS011;15383;48.408;9.968;2024-01-30T02:57:22;19.38;;;8.43;;
28070;SDS011;15383;48.408;9.968;2024-01-30T02:59:47;18.33;;;9.10;;
28070;SDS011;15383;48.408;9.968;2024-01-30T03:02:13;15.48;;;9.27;;
28070;SDS011;15383;48.408;9.968;2024-01-30T03:04:40;17.40;;;9.52;;
28070;SDS011;15383;48.408;9.968;2024-01-30T03:07:06;15.57;;;8.85;;
28070;SDS011;15383;48.408;9.968;2024-01-30T03:09:32;15.32;;;8.57;;
28070;SDS011;15383;48.408;9.968;2024-01-30T03:11:57;21.60;;;9.13;;
28070;SDS011;15383;48.408;9.968;2024-01-30T03:14:23;17.67;;;9.52;;
28070;SDS011;15383;48.408;9.968;2024-01-30T03:16:48;22.60;;;9.75;;
28070;SDS011;15383;48.408;9.968;2024-01-30T03:19:14;19.90;;;9.40;;
28070;SDS011;15383;48.408;9.968;2024-01-30T03:21:39;14.73;;;8.38;;
28070;SDS011;15383;48.408;9.968;2024-01-30T03:24:05;21.60;;;9.77;;
28070;SDS011;15383;48.408;9.968;2024-01-30T03:26:30;21.77;;;9.63;;
28070;SDS011;15383;48.408;9.968;2024-01-30T03:28:56;18.67;;;8.38;;
28070;SDS011;15383;48.408;9.968;2024-01-30T03:31:22;18.35;;;8.98;;
28070;SDS011;15383;48.408;9.968;2024-01-30T03:33:47;19.88;;;8.52;;
28070;SDS011;15383;48.408;9.968;2024-01-30T03:36:13;14.75;;;8.02;;
28070;SDS011;15383;48.408;9.968;2024-01-30T03:38:40;17.80;;;9.02;;
28070;SDS011;15383;48.408;9.968;2024-01-30T03:41:07;19.33;;;9.32;;
28070;SDS011;15383;48.408;9.968;2024-01-30T03:43:34;17.15;;;9.07;;
28070;SDS011;15383;48.408;9.968;2024-01-30T03:46:00;18.27;;;9.10;;
28070;SDS011;15383;48.408;9.968;2024-01-30T03:48:26;14.57;;;8.15;;
28070;SDS011;15383;48.408;9.968;2024-01-30T03:50:52;15.45;;;7.95;;
28070;SDS011;15383;48.408;9.968;2024-01-30T03:53:17;16.35;;;8.98;;
28070;SDS011;15383;48.408;9.968;2024-01-30T03:55:43;15.85;;;8.48;;
28070;SDS011;15383;48.408;9.968;2024-01-30T03:58:08;19.48;;;8.88;;
28070;SDS011;15383;48.408;9.968;2024-01-30T04:00:34;15.57;;;8.65;;
28070;SDS011;15383;48.408;9.968;2024-01-30T04:03:00;19.88;;;9.38;;
28070;SDS011;15383;48.408;9.968;2024-01-30T04:05:25;17.33;;;9.05;;
28070;SDS011;15383;48.408;9.968;2024-01-30T04:07:51;16.67;;;8.35;;
28070;SDS011;15383;48.408;9.968;2024-01-30T04:10:16;17.13;;;8.30;;
28070;SDS011;15383;48.408;9.968;2024-01-30T04:12:42;19.08;;;8.68;;
28070;SDS011;15383;48.408;9.968;2024-01-30T04:15:08;17.95;;;8.35;;
28070;SDS011;15383;48.408;9.968;2024-01-30T04:17:33;20.42;;;9.10;;
28070;SDS011;15383;48.408;9.968;2024-01-30T04:19:59;16.92;;;8.77;;
28070;SDS011;15383;48.408;9.968;2024-01-30T04:22:25;17.95;;;8.80;;
28070;SDS011;15383;48.408;9.968;2024-01-30T04:24:50;17.73;;;8.90;;
28070;SDS011;15383;48.408;9.968;2024-01-30T04:27:16;15.88;;;9.27;;
28070;SDS011;15383;48.408;9.968;2024-01-30T04:29:42;14.93;;;8.73;;
28070;SDS011;15383;48.408;9.968;2024-01-30T04:32:07;17.15;;;8.82;;
28070;SDS011;15383;48.408;9.968;2024-01-30T04:34:34;21.15;;;9.20;;
28070;SDS011;15383;48.408;9.968;2024-01-30T04:37:01;16.05;;;8.02;;
28070;SDS011;15383;48.408;9.968;2024-01-30T04:39:26;15.55;;;9.05;;
28070;SDS011;15383;48.408;9.968;2024-01-30T04:41:52;16.65;;;8.75;;
28070;SDS011;15383;48.408;9.968;2024-01-30T04:44:17;18.73;;;8.50;;
28070;SDS011;15383;48.408;9.968;2024-01-30T04:46:43;15.98;;;9.05;;
28070;SDS011;15383;48.408;9.968;2024-01-30T04:49:08;19.85;;;8.38;;
28070;SDS011;15383;48.408;9.968;2024-01-30T04:51:34;15.95;;;8.25;;
28070;SDS011;15383;48.408;9.968;2024-01-30T04:53:59;18.05;;;8.30;;
28070;SDS011;15383;48.408;9.968;2024-01-30T04:56:25;18.92;;;7.80;;
28070;SDS011;15383;48.408;9.968;2024-01-30T04:58:50;15.55;;;8.50;;
28070;SDS011;15383;48.408;9.968;2024-01-30T05:01:16;17.67;;;9.30;;
28070;SDS011;15383;48.408;9.968;2024-01-30T05:03:42;19.17;;;8.13;;
28070;SDS011;15383;48.408;9.968;2024-01-30T05:06:08;19.10;;;9.00;;
28070;SDS011;15383;48.408;9.968;2024-01-30T05:08:34;18.08;;;8.75;;
28070;SDS011;15383;48.408;9.968;2024-01-30T05:11:01;19.38;;;9.10;;
28070;SDS011;15383;48.408;9.968;2024-01-30T05:13:29;18.95;;;9.23;;
28070;SDS011;15383;48.408;9.968;2024-01-30T05:15:55;17.88;;;8.38;;
28070;SDS011;15383;48.408;9.968;2024-01-30T05:18:21;15.10;;;7.57;;
28070;SDS011;15383;48.408;9.968;2024-01-30T05:20:46;17.73;;;8.88;;
28070;SDS011;15383;48.408;9.968;2024-01-30T05:23:12;17.02;;;8.18;;
28070;SDS011;15383;48.408;9.968;2024-01-30T05:25:37;19.98;;;8.43;;
28070;SDS011;15383;48.408;9.968;2024-01-30T05:28:03;16.33;;;9.73;;
28070;SDS011;15383;48.408;9.968;2024-01-30T05:30:29;25.02;;;9.25;;
28070;SDS011;15383;48.408;9.968;2024-01-30T05:32:54;18.55;;;8.70;;
28070;SDS011;15383;48.408;9.968;2024-01-30T05:35:20;18.15;;;8.63;;
28070;SDS011;15383;48.408;9.968;2024-01-30T05:37:47;16.40;;;8.38;;
28070;SDS011;15383;48.408;9.968;2024-01-30T05:40:13;19.13;;;9.40;;
28070;SDS011;15383;48.408;9.968;2024-01-30T05:42:39;20.40;;;9.40;;
28070;SDS011;15383;48.408;9.968;2024-01-30T05:45:04;18.15;;;9.10;;
28070;SDS011;15383;48.408;9.968;2024-01-30T05:47:30;16.80;;;8.38;;
28070;SDS011;15383;48.408;9.968;2024-01-30T05:49:56;23.05;;;8.60;;
28070;SDS011;15383;48.408;9.968;2024-01-30T05:52:22;18.48;;;8.60;;
28070;SDS011;15383;48.408;9.968;2024-01-30T05:54:47;15.55;;;8.30;;
28070;SDS011;15383;48.408;9.968;2024-01-30T05:57:13;18.67;;;8.60;;
28070;SDS011;15383;48.408;9.968;2024-01-30T05:59:38;16.38;;;9.07;;
28070;SDS011;15383;48.408;9.968;2024-01-30T06:02:04;18.13;;;8.80;;
28070;SDS011;15383;48.408;9.968;2024-01-30T06:04:29;23.23;;;9.02;;
28070;SDS011;15383;48.408;9.968;2024-01-30T06:06:55;16.65;;;8.75;;
28070;SDS011;15383;48.408;9.968;2024-01-30T06:09:20;13.30;;;8.05;;
28070;SDS011;15383;48.408;9.968;2024-01-30T06:11:46;17.27;;;8.27;;
28070;SDS011;15383;48.408;9.968;2024-01-30T06:14:11;17.52;;;8.45;;
28070;SDS011;15383;48.408;9.968;2024-01-30T06:16:37;17.20;;;8.73;;
28070;SDS011;15383;48.408;9.968;2024-01-30T06:19:02;17.13;;;8.63;;
28070;SDS011;15383;48.408;9.968;2024-01-30T06:21:28;17.20;;;8.45;;
28070;SDS011;15383;48.408;9.968;2024-01-30T06:23:54;18.17;;;8.02;;
28070;SDS011;15383;48.408;9.968;2024-01-30T06:26:19;18.92;;;8.55;;
28070;SDS011;15383;48.408;9.968;2024-01-30T06:28:45;18.50;;;8.88;;
28070;SDS011;15383;48.408;9.968;2024-01-30T06:31:10;18.38;;;9.05;;
28070;SDS011;15383;48.408;9.968;2024-01-30T06:33:36;16.63;;;8.68;;
28070;SDS011;15383;48.408;9.968;2024-01-30T06:36:02;19.27;;;9.13;;
28070;SDS011;15383;48.408;9.968;2024-01-30T06:38:27;17.63;;;8.85;;
28070;SDS011;15383;48.408;9.968;2024-01-30T06:40:53;19.65;;;9.55;;
28070;SDS011;15383;48.408;9.968;2024-01-30T06:43:18;18.05;;;8.50;;
28070;SDS011;15383;48.408;9.968;2024-01-30T06:45:44;18.60;;;9.35;;
28070;SDS011;15383;48.408;9.968;2024-01-30T06:48:09;17.95;;;8.45;;
28070;SDS011;15383;48.408;9.968;2024-01-30T06:50:35;21.92;;;8.65;;
28070;SDS011;15383;48.408;9.968;2024-01-30T06:53:00;18.00;;;8.48;;
28070;SDS011;15383;48.408;9.968;2024-01-30T06:55:26;17.63;;;8.25;;
28070;SDS011;15383;48.408;9.968;2024-01-30T06:57:51;21.17;;;9.00;;
28070;SDS011;15383;48.408;9.968;2024-01-30T07:00:17;17.45;;;8.63;;
28070;SDS011;15383;48.408;9.968;2024-01-30T07:02:44;18.27;;;9.43;;
28070;SDS011;15383;48.408;9.968;2024-01-30T07:05:10;16.42;;;9.20;;
28070;SDS011;15383;48.408;9.968;2024-01-30T07:07:35;18.38;;;9.35;;
28070;SDS011;15383;48.408;9.968;2024-01-30T07:10:01;17.92;;;8.98;;
28070;SDS011;15383;48.408;9.968;2024-01-30T07:12:26;17.67;;;9.05;;
28070;SDS011;15383;48.408;9.968;2024-01-30T07:14:52;17.05;;;9.70;;
28070;SDS011;15383;48.408;9.968;2024-01-30T07:17:18;21.65;;;9.93;;
28070;SDS011;15383;48.408;9.968;2024-01-30T07:19:43;22.50;;;9.52;;
28070;SDS011;15383;48.408;9.968;2024-01-30T07:22:09;22.13;;;10.52;;
28070;SDS011;15383;48.408;9.968;2024-01-30T07:24:34;20.33;;;10.05;;
28070;SDS011;15383;48.408;9.968;2024-01-30T07:27:00;25.13;;;11.23;;
28070;SDS011;15383;48.408;9.968;2024-01-30T07:29:26;22.98;;;11.18;;
28070;SDS011;15383;48.408;9.968;2024-01-30T07:31:51;19.02;;;9.70;;
28070;SDS011;15383;48.408;9.968;2024-01-30T07:34:17;16.95;;;9.98;;
28070;SDS011;15383;48.408;9.968;2024-01-30T07:36:43;23.10;;;10.45;;
28070;SDS011;15383;48.408;9.968;2024-01-30T07:39:08;21.05;;;10.57;;
28070;SDS011;15383;48.408;9.968;2024-01-30T07:41:35;24.35;;;10.95;;
28070;SDS011;15383;48.408;9.968;2024-01-30T07:44:00;23.92;;;10.18;;
28070;SDS011;15383;48.408;9.968;2024-01-30T07:46:26;21.25;;;10.23;;
28070;SDS011;15383;48.408;9.968;2024-01-30T07:48:52;21.58;;;9.68;;
28070;SDS011;15383;48.408;9.968;2024-01-30T07:51:18;20.73;;;9.88;;
28070;SDS011;15383;48.408;9.968;2024-01-30T07:53:43;20.70;;;10.57;;
28070;SDS011;15383;48.408;9.968;2024-01-30T07:56:09;22.92;;;10.90;;
28070;SDS011;15383;48.408;9.968;2024-01-30T07:58:35;18.45;;;9.05;;
28070;SDS011;15383;48.408;9.968;2024-01-30T08:01:02;28.20;;;10.73;;
28070;SDS011;15383;48.408;9.968;2024-01-30T08:03:28;23.40;;;10.02;;
28070;SDS011;15383;48.408;9.968;2024-01-30T08:05:53;20.83;;;9.80;;
28070;SDS011;15383;48.408;9.968;2024-01-30T08:08:19;19.85;;;9.30;;
28070;SDS011;15383;48.408;9.968;2024-01-30T08:10:44;18.02;;;9.38;;
28070;SDS011;15383;48.408;9.968;2024-01-30T08:13:10;14.85;;;8.85;;
28070;SDS011;15383;48.408;9.968;2024-01-30T08:15:35;21.15;;;10.63;;
28070;SDS011;15383;48.408;9.968;2024-01-30T08:18:01;22.52;;;9.82;;
28070;SDS011;15383;48.408;9.968;2024-01-30T08:20:26;17.85;;;9.02;;
28070;SDS011;15383;48.408;9.968;2024-01-30T08:22:52;22.80;;;10.35;;
28070;SDS011;15383;48.408;9.968;2024-01-30T08:25:17;23.00;;;9.88;;
28070;SDS011;15383;48.408;9.968;2024-01-30T08:27:43;18.90;;;8.90;;
28070;SDS011;15383;48.408;9.968;2024-01-30T08:30:09;14.18;;;7.80;;
28070;SDS011;15383;48.408;9.968;2024-01-30T08:32:35;15.85;;;8.98;;
28070;SDS011;15383;48.408;9.968;2024-01-30T08:35:01;20.85;;;9.02;;
28070;SDS011;15383;48.408;9.968;2024-01-30T08:37:29;15.90;;;9.30;;
28070;SDS011;15383;48.408;9.968;2024-01-30T08:39:55;18.35;;;8.70;;
28070;SDS011;15383;48.408;9.968;2024-01-30T08:42:21;25.52;;;10.02;;
28070;SDS011;15383;48.408;9.968;2024-01-30T08:44:50;22.67;;;11.15;;
28070;SDS011;15383;48.408;9.968;2024-01-30T08:47:18;20.17;;;10.65;;
28070;SDS011;15383;48.408;9.968;2024-01-30T08:49:43;22.00;;;10.20;;
28070;SDS011;15383;48.408;9.968;2024-01-30T08:52:10;22.65;;;10.10;;
28070;SDS011;15383;48.408;9.968;2024-01-30T08:54:36;20.05;;;10.57;;
28070;SDS011;15383;48.408;9.968;2024-01-30T08:57:01;25.08;;;10.77;;
28070;SDS011;15383;48.408;9.968;2024-01-30T08:59:27;24.98;;;10.40;;
28070;SDS011;15383;48.408;9.968;2024-01-30T09:01:53;20.35;;;10.13;;
28070;SDS011;15383;48.408;9.968;2024-01-30T09:04:20;22.27;;;10.85;;
28070;SDS011;15383;48.408;9.968;2024-01-30T09:06:46;24.35;;;11.98;;
28070;SDS011;15383;48.408;9.968;2024-01-30T09:09:12;25.83;;;10.85;;
28070;SDS011;15383;48.408;9.968;2024-01-30T09:11:38;28.20;;;11.68;;
28070;SDS011;15383;48.408;9.968;2024-01-30T09:14:03;22.83;;;12.07;;
28070;SDS011;15383;48.408;9.968;2024-01-30T09:16:29;27.50;;;12.88;;
28070;SDS011;15383;48.408;9.968;2024-01-30T09:18:54;28.63;;;12.43;;
28070;SDS011;15383;48.408;9.968;2024-01-30T09:21:20;30.02;;;11.40;;
28070;SDS011;15383;48.408;9.968;2024-01-30T09:23:45;29.58;;;12.73;;
28070;SDS011;15383;48.408;9.968;2024-01-30T09:26:11;25.23;;;11.45;;
28070;SDS011;15383;48.408;9.968;2024-01-30T09:28:37;25.20;;;11.57;;
28070;SDS011;15383;48.408;9.968;2024-01-30T09:31:03;25.63;;;11.95;;
28070;SDS011;15383;48.408;9.968;2024-01-30T09:33:29;27.88;;;12.40;;
28070;SDS011;15383;48.408;9.968;2024-01-30T09:35:54;24.00;;;11.73;;
28070;SDS011;15383;48.408;9.968;2024-01-30T09:38:20;26.80;;;12.13;;
28070;SDS011;15383;48.408;9.968;2024-01-30T09:40:46;26.58;;;11.70;;
28070;SDS011;15383;48.408;9.968;2024-01-30T09:43:18;21.73;;;11.43;;
28070;SDS011;15383;48.408;9.968;2024-01-30T09:45:48;23.43;;;11.67;;
28070;SDS011;15383;48.408;9.968;2024-01-30T09:48:15;21.77;;;11.30;;
28070;SDS011;15383;48.408;9.968;2024-01-30T09:50:40;23.58;;;12.00;;
28070;SDS011;15383;48.408;9.968;2024-01-30T09:53:06;25.50;;;11.88;;
28070;SDS011;15383;48.408;9.968;2024-01-30T09:55:33;27.92;;;12.07;;
28070;SDS011;15383;48.408;9.968;2024-01-30T09:58:01;26.45;;;12.40;;
28070;SDS011;15383;48.408;9.968;2024-01-30T10:00:26;22.73;;;11.60;;
28070;SDS011;15383;48.408;9.968;2024-01-30T10:02:52;22.58;;;12.20;;
28070;SDS011;15383;48.408;9.968;2024-01-30T10:05:18;29.95;;;12.68;;
28070;SDS011;15383;48.408;9.968;2024-01-30T10:07:54;24.42;;;12.55;;
28070;SDS011;15383;48.408;9.968;2024-01-30T10:10:22;25.65;;;11.80;;
28070;SDS011;15383;48.408;9.968;2024-01-30T10:12:48;22.65;;;11.57;;
28070;SDS011;15383;48.408;9.968;2024-01-30T10:15:14;25.60;;;12.18;;
28070;SDS011;15383;48.408;9.968;2024-01-30T10:17:40;24.63;;;12.98;;
28070;SDS011;15383;48.408;9.968;2024-01-30T10:20:06;24.55;;;11.88;;
28070;SDS011;15383;48.408;9.968;2024-01-30T10:22:32;24.17;;;11.95;;
28070;SDS011;15383;48.408;9.968;2024-01-30T10:24:58;20.00;;;10.88;;
28070;SDS011;15383;48.408;9.968;2024-01-30T10:27:25;28.73;;;13.07;;
28070;SDS011;15383;48.408;9.968;2024-01-30T10:29:54;24.75;;;12.95;;
28070;SDS011;15383;48.408;9.968;2024-01-30T10:32:20;29.77;;;14.30;;
28070;SDS011;15383;48.408;9.968;2024-01-30T10:34:46;27.10;;;12.90;;
28070;SDS011;15383;48.408;9.968;2024-01-30T10:37:12;33.65;;;14.52;;
28070;SDS011;15383;48.408;9.968;2024-01-30T10:39:40;31.42;;;13.18;;
28070;SDS011;15383;48.408;9.968;2024-01-30T10:42:07;24.58;;;12.00;;
28070;SDS011;15383;48.408;9.968;2024-01-30T10:47:17;26.40;;;11.75;;
28070;SDS011;15383;48.408;9.968;2024-01-30T10:49:50;21.80;;;11.02;;
28070;SDS011;15383;48.408;9.968;2024-01-30T10:52:17;27.27;;;12.00;;
28070;SDS011;15383;48.408;9.968;2024-01-30T10:54:44;24.55;;;12.05;;
28070;SDS011;15383;48.408;9.968;2024-01-30T10:57:10;27.40;;;12.00;;
28070;SDS011;15383;48.408;9.968;2024-01-30T10:59:37;27.27;;;12.93;;
28070;SDS011;15383;48.408;9.968;2024-01-30T11:02:03;28.23;;;12.93;;
28070;SDS011;15383;48.408;9.968;2024-01-30T11:04:40;27.15;;;13.05;;
28070;SDS011;15383;48.408;9.968;2024-01-30T11:07:16;28.35;;;12.52;;
28070;SDS011;15383;48.408;9.968;2024-01-30T11:09:52;22.92;;;11.75;;
28070;SDS011;15383;48.408;9.968;2024-01-30T11:12:24;25.52;;;12.48;;
28070;SDS011;15383;48.408;9.968;2024-01-30T11:20:25;29.60;;;13.05;;
28070;SDS011;15383;48.408;9.968;2024-01-30T11:22:58;25.30;;;12.30;;
28070;SDS011;15383;48.408;9.968;2024-01-30T11:25:24;24.73;;;12.55;;
28070;SDS011;15383;48.408;9.968;2024-01-30T11:27:51;25.08;;;11.43;;
28070;SDS011;15383;48.408;9.968;2024-01-30T11:30:21;26.25;;;12.50;;
28070;SDS011;15383;48.408;9.968;2024-01-30T11:35:52;22.58;;;10.77;;
28070;SDS011;15383;48.408;9.968;2024-01-30T11:38:18;20.17;;;11.02;;
28070;SDS011;15383;48.408;9.968;2024-01-30T11:40:44;27.63;;;11.77;;
28070;SDS011;15383;48.408;9.968;2024-01-30T11:43:10;30.00;;;13.00;;
28070;SDS011;15383;48.408;9.968;2024-01-30T11:45:36;30.42;;;13.35;;
28070;SDS011;15383;48.408;9.968;2024-01-30T11:48:03;27.73;;;12.80;;
28070;SDS011;15383;48.408;9.968;2024-01-30T11:50:38;26.58;;;13.57;;
28070;SDS011;15383;48.408;9.968;2024-01-30T11:53:04;24.45;;;11.82;;
28070;SDS011;15383;48.408;9.968;2024-01-30T11:55:30;24.10;;;12.40;;
28070;SDS011;15383;48.408;9.968;2024-01-30T11:57:56;25.25;;;12.65;;
28070;SDS011;15383;48.408;9.968;2024-01-30T12:00:23;26.77;;;13.77;;
28070;SDS011;15383;48.408;9.968;2024-01-30T12:02:52;30.17;;;13.13;;
28070;SDS011;15383;48.408;9.968;2024-01-30T12:05:22;25.88;;;12.68;;
28070;SDS011;15383;48.408;9.968;2024-01-30T12:07:48;27.08;;;12.63;;
28070;SDS011;15383;48.408;9.968;2024-01-30T12:10:14;27.15;;;12.98;;
28070;SDS011;15383;48.408;9.968;2024-01-30T12:12:41;27.73;;;12.00;;
28070;SDS011;15383;48.408;9.968;2024-01-30T12:15:09;29.17;;;12.82;;
28070;SDS011;15383;48.408;9.968;2024-01-30T12:17:35;27.73;;;12.65;;
28070;SDS011;15383;48.408;9.968;2024-01-30T12:20:11;23.42;;;11.93;;
28070;SDS011;15383;48.408;9.968;2024-01-30T12:22:39;24.52;;;11.93;;
28070;SDS011;15383;48.408;9.968;2024-01-30T12:25:09;25.10;;;12.30;;
28070;SDS011;15383;48.408;9.968;2024-01-30T12:27:36;21.55;;;11.60;;
28070;SDS011;15383;48.408;9.968;2024-01-30T12:30:06;27.73;;;11.77;;
28070;SDS011;15383;48.408;9.968;2024-01-30T12:32:35;26.60;;;12.73;;
28070;SDS011;15383;48.408;9.968;2024-01-30T12:35:12;24.60;;;11.70;;
28070;SDS011;15383;48.408;9.968;2024-01-30T12:37:39;30.25;;;12.02;;
28070;SDS011;15383;48.408;9.968;2024-01-30T12:40:05;27.88;;;11.73;;
28070;SDS011;15383;48.408;9.968;2024-01-30T12:42:32;25.50;;;11.98;;
28070;SDS011;15383;48.408;9.968;2024-01-30T12:44:58;31.15;;;12.15;;
28070;SDS011;15383;48.408;9.968;2024-01-30T12:47:24;28.20;;;12.13;;
28070;SDS011;15383;48.408;9.968;2024-01-30T12:49:50;28.50;;;12.52;;
28070;SDS011;15383;48.408;9.968;2024-01-30T12:52:18;26.95;;;11.68;;
28070;SDS011;15383;48.408;9.968;2024-01-30T12:54:45;27.77;;;13.50;;
28070;SDS011;15383;48.408;9.968;2024-01-30T12:57:11;26.27;;;13.20;;
28070;SDS011;15383;48.408;9.968;2024-01-30T12:59:37;26.40;;;13.15;;
28070;SDS011;15383;48.408;9.968;2024-01-30T13:02:02;27.67;;;12.35;;
28070;SDS011;15383;48.408;9.968;2024-01-30T13:04:28;26.92;;;12.13;;
28070;SDS011;15383;48.408;9.968;2024-01-30T13:06:54;27.25;;;12.63;;
28070;SDS011;15383;48.408;9.968;2024-01-30T13:09:20;31.15;;;12.82;;
28070;SDS011;15383;48.408;9.968;2024-01-30T13:11:46;26.33;;;12.20;;
28070;SDS011;15383;48.408;9.968;2024-01-30T13:14:11;31.63;;;12.57;;
28070;SDS011;15383;48.408;9.968;2024-01-30T13:16:37;28.52;;;12.88;;
28070;SDS011;15383;48.408;9.968;2024-01-30T13:19:03;34.40;;;12.80;;
28070;SDS011;15383;48.408;9.968;2024-01-30T13:21:29;27.88;;;13.77;;
28070;SDS011;15383;48.408;9.968;2024-01-30T13:23:54;27.33;;;12.10;;
28070;SDS011;15383;48.408;9.968;2024-01-30T13:26:20;29.48;;;13.27;;
28070;SDS011;15383;48.408;9.968;2024-01-30T13:28:46;27.45;;;12.82;;
28070;SDS011;15383;48.408;9.968;2024-01-30T13:31:12;27.92;;;12.63;;
28070;SDS011;15383;48.408;9.968;2024-01-30T13:33:38;32.45;;;13.20;;
28070;SDS011;15383;48.408;9.968;2024-01-30T13:36:04;27.48;;;12.95;;
28070;SDS011;15383;48.408;9.968;2024-01-30T13:38:30;25.42;;;13.07;;
28070;SDS011;15383;48.408;9.968;2024-01-30T13:40:55;25.55;;;11.85;;
28070;SDS011;15383;48.408;9.968;2024-01-30T13:43:21;29.88;;;13.50;;
28070;SDS011;15383;48.408;9.968;2024-01-30T13:45:47;23.63;;;12.15;;
28070;SDS011;15383;48.408;9.968;2024-01-30T13:48:12;29.50;;;14.10;;
28070;SDS011;15383;48.408;9.968;2024-01-30T13:50:38;28.52;;;12.85;;
28070;SDS011;15383;48.408;9.968;2024-01-30T13:53:03;28.48;;;13.82;;
28070;SDS011;15383;48.408;9.968;2024-01-30T13:55:29;29.10;;;13.18;;
28070;SDS011;15383;48.408;9.968;2024-01-30T13:57:55;26.63;;;13.35;;
28070;SDS011;15383;48.408;9.968;2024-01-30T14:00:21;29.00;;;13.00;;
28070;SDS011;15383;48.408;9.968;2024-01-30T14:02:47;33.03;;;13.68;;
28070;SDS011;15383;48.408;9.968;2024-01-30T14:05:13;26.95;;;12.00;;
28070;SDS011;15383;48.408;9.968;2024-01-30T14:07:39;28.95;;;12.20;;
28070;SDS011;15383;48.408;9.968;2024-01-30T14:10:05;28.38;;;13.02;;
28070;SDS011;15383;48.408;9.968;2024-01-30T14:12:31;27.55;;;12.85;;
28070;SDS011;15383;48.408;9.968;2024-01-30T14:14:57;28.73;;;12.68;;
28070;SDS011;15383;48.408;9.968;2024-01-30T14:17:22;25.52;;;12.93;;
28070;SDS011;15383;48.408;9.968;2024-01-30T14:19:48;26.50;;;13.35;;
28070;SDS011;15383;48.408;9.968;2024-01-30T14:22:13;25.08;;;13.23;;
28070;SDS011;15383;48.408;9.968;2024-01-30T14:24:39;26.88;;;12.48;;
28070;SDS011;15383;48.408;9.968;2024-01-30T14:27:05;24.05;;;12.00;;
28070;SDS011;15383;48.408;9.968;2024-01-30T14:29:30;25.60;;;13.20;;
28070;SDS011;15383;48.408;9.968;2024-01-30T14:31:56;28.02;;;12.18;;